createdAt,value
2019-01-18T00:00:39.801Z,0.08
2019-01-18T00:03:08.893Z,0.14
2019-01-18T00:05:37.969Z,0.06
2019-01-18T00:08:07.072Z,0.10
2019-01-18T00:10:36.166Z,0.16
2019-01-18T00:13:05.480Z,0.22
2019-01-18T00:15:34.566Z,0.07
2019-01-18T00:18:03.661Z,0.08
2019-01-18T00:20:32.742Z,0.04
2019-01-18T00:23:01.846Z,0.10
2019-01-18T00:25:30.921Z,0.05
2019-01-18T00:28:00.005Z,0.04
2019-01-18T00:30:29.106Z,0.06
2019-01-18T00:32:58.178Z,0.07
2019-01-18T00:35:27.269Z,0.01
2019-01-18T00:37:56.360Z,-0.04
2019-01-18T00:40:25.470Z,-0.05
2019-01-18T00:42:54.581Z,-0.04
2019-01-18T00:45:23.686Z,-0.05
2019-01-18T00:47:52.774Z,-0.10
2019-01-18T00:50:21.879Z,-0.07
2019-01-18T00:52:50.966Z,-0.08
2019-01-18T00:55:20.169Z,-0.11
2019-01-18T00:57:49.423Z,-0.05
2019-01-18T01:00:21.217Z,-0.14
2019-01-18T01:02:50.397Z,-0.12
2019-01-18T01:05:19.898Z,-0.13
2019-01-18T01:07:48.982Z,-0.07
2019-01-18T01:10:18.078Z,-0.01
2019-01-18T01:12:47.238Z,-0.10
2019-01-18T01:15:17.770Z,-0.06
2019-01-18T01:17:46.912Z,-0.11
2019-01-18T01:20:18.605Z,-0.12
2019-01-18T01:22:47.719Z,-0.11
2019-01-18T01:25:17.002Z,-0.13
2019-01-18T01:27:46.305Z,-0.12
2019-01-18T01:30:20.367Z,-0.12
2019-01-18T01:32:49.587Z,-0.10
2019-01-18T01:35:18.740Z,-0.14
2019-01-18T01:37:47.933Z,-0.21
2019-01-18T01:40:19.223Z,-0.25
2019-01-18T01:42:48.343Z,-0.29
2019-01-18T01:45:17.513Z,-0.35
2019-01-18T01:47:46.610Z,-0.40
2019-01-18T01:50:18.144Z,-0.52
2019-01-18T01:52:47.238Z,-0.57
2019-01-18T01:55:16.322Z,-0.67
2019-01-18T01:57:45.517Z,-0.71
2019-01-18T02:00:19.350Z,-0.85
2019-01-18T02:02:48.459Z,-0.97
2019-01-18T02:05:17.630Z,-1.03
2019-01-18T02:07:46.958Z,-1.11
2019-01-18T02:10:17.065Z,-1.19
2019-01-18T02:12:46.259Z,-1.15
2019-01-18T02:15:17.454Z,-1.11
2019-01-18T02:17:46.543Z,-0.95
2019-01-18T02:20:17.479Z,-0.81
2019-01-18T02:22:46.987Z,-0.66
2019-01-18T02:25:16.257Z,-0.59
2019-01-18T02:27:46.191Z,-0.52
2019-01-18T02:30:23.847Z,-0.48
2019-01-18T02:32:52.942Z,-0.45
2019-01-18T02:35:22.024Z,-0.37
2019-01-18T02:37:51.140Z,-0.45
2019-01-18T02:40:20.315Z,-0.40
2019-01-18T02:42:49.409Z,-0.46
2019-01-18T02:45:19.909Z,-0.50
2019-01-18T02:47:49.123Z,-0.45
2019-01-18T02:50:18.870Z,-0.51
2019-01-18T02:52:47.955Z,-0.44
2019-01-18T02:55:17.076Z,-0.38
2019-01-18T02:57:46.126Z,-0.44
2019-01-18T03:00:17.540Z,-0.38
2019-01-18T03:02:46.625Z,-0.57
2019-01-18T03:05:16.754Z,-0.75
2019-01-18T03:07:45.838Z,-0.70
2019-01-18T03:10:18.458Z,-0.71
2019-01-18T03:12:47.559Z,-0.67
2019-01-18T03:15:16.662Z,-0.63
2019-01-18T03:17:45.744Z,-0.60
2019-01-18T03:20:15.687Z,-0.52
2019-01-18T03:22:44.859Z,-0.51
2019-01-18T03:25:19.442Z,-0.36
2019-01-18T03:27:48.509Z,-0.40
2019-01-18T03:30:20.496Z,-0.42
2019-01-18T03:32:48.902Z,-0.49
2019-01-18T03:35:19.038Z,-0.34
2019-01-18T03:37:48.227Z,-0.47
2019-01-18T03:40:18.118Z,-0.60
2019-01-18T03:42:48.053Z,-0.55
2019-01-18T03:45:18.137Z,-0.66
2019-01-18T03:47:47.333Z,-0.65
2019-01-18T03:50:18.723Z,-0.68
2019-01-18T03:52:47.802Z,-0.74
2019-01-18T03:55:16.902Z,-0.76
2019-01-18T03:57:46.158Z,-0.76
2019-01-18T04:00:26.187Z,-0.57
2019-01-18T04:02:54.256Z,-0.84
2019-01-18T04:05:23.372Z,-0.99
2019-01-18T04:07:52.460Z,-0.87
2019-01-18T04:10:21.686Z,-0.76
2019-01-18T04:12:50.811Z,-0.68
2019-01-18T04:15:20.686Z,-0.70
2019-01-18T04:17:49.863Z,-0.42
2019-01-18T04:20:19.300Z,-0.51
2019-01-18T04:22:48.376Z,-0.51
2019-01-18T04:25:22.517Z,-0.60
2019-01-18T04:27:51.591Z,-0.50
2019-01-18T04:30:21.791Z,-0.56
2019-01-18T04:32:51.089Z,-0.64
2019-01-18T04:35:20.496Z,-0.82
2019-01-18T04:37:49.603Z,-0.91
2019-01-18T04:40:20.612Z,-0.92
2019-01-18T04:42:49.709Z,-0.92
2019-01-18T04:45:18.832Z,-0.93
2019-01-18T04:47:47.900Z,-0.95
2019-01-18T04:50:18.837Z,-1.18
2019-01-18T04:52:47.907Z,-1.34
2019-01-18T04:55:17.299Z,-1.42
2019-01-18T04:57:46.400Z,-1.32
2019-01-18T05:00:18.322Z,-1.23
2019-01-18T05:02:47.416Z,-1.13
2019-01-18T05:05:16.495Z,-0.98
2019-01-18T05:07:45.594Z,-0.84
2019-01-18T05:10:15.685Z,-0.71
2019-01-18T05:12:44.799Z,-0.63
2019-01-18T05:15:16.244Z,-0.65
2019-01-18T05:17:46.101Z,-0.62
2019-01-18T05:20:15.205Z,-0.72
2019-01-18T05:22:44.321Z,-0.77
2019-01-18T05:25:14.120Z,-0.92
2019-01-18T05:27:43.229Z,-0.95
2019-01-18T05:30:18.064Z,-1.10
2019-01-18T05:32:47.184Z,-1.08
2019-01-18T05:35:16.596Z,-0.92
2019-01-18T05:37:45.693Z,-0.79
2019-01-18T05:40:15.598Z,-0.97
2019-01-18T05:42:44.755Z,-0.88
2019-01-18T05:45:15.280Z,-0.73
2019-01-18T05:47:44.497Z,-0.92
2019-01-18T05:50:15.743Z,-0.94
2019-01-18T05:52:44.857Z,-0.92
2019-01-18T05:55:14.043Z,-0.86
2019-01-18T05:57:43.162Z,-0.57
2019-01-18T06:00:21.564Z,-0.74
2019-01-18T06:02:50.668Z,-0.76
2019-01-18T06:05:20.474Z,-0.80
2019-01-18T06:07:49.588Z,-0.97
2019-01-18T06:10:18.677Z,-1.07
2019-01-18T06:12:47.778Z,-1.22
2019-01-18T06:15:16.861Z,-1.08
2019-01-18T06:17:45.967Z,-1.07
2019-01-18T06:20:15.264Z,-0.95
2019-01-18T06:22:44.368Z,-0.98
2019-01-18T06:25:13.490Z,-0.98
2019-01-18T06:27:42.575Z,-0.93
2019-01-18T06:30:14.740Z,-1.03
2019-01-18T06:32:43.840Z,-1.32
2019-01-18T06:35:13.459Z,-1.48
2019-01-18T06:37:42.571Z,-1.60
2019-01-18T06:40:13.301Z,-1.73
2019-01-18T06:42:42.432Z,-1.81
2019-01-18T06:45:13.000Z,-1.95
2019-01-18T06:47:42.097Z,-2.11
2019-01-18T06:50:13.193Z,-2.42
2019-01-18T06:52:42.300Z,-2.59
2019-01-18T06:55:11.647Z,-2.76
2019-01-18T06:57:40.753Z,-2.75
2019-01-18T07:00:21.736Z,-2.90
2019-01-18T07:02:50.955Z,-2.81
2019-01-18T07:05:20.043Z,-2.79
2019-01-18T07:07:49.143Z,-2.92
2019-01-18T07:10:20.884Z,-2.92
2019-01-18T07:12:51.390Z,-2.92
2019-01-18T07:15:20.603Z,-2.88
2019-01-18T07:17:49.685Z,-2.77
2019-01-18T07:20:19.303Z,-2.65
2019-01-18T07:22:48.388Z,-2.53
2019-01-18T07:25:31.386Z,-2.42
2019-01-18T07:28:00.530Z,-2.21
2019-01-18T07:30:34.718Z,-2.20
2019-01-18T07:33:04.118Z,-2.04
2019-01-18T07:35:33.225Z,-2.19
2019-01-18T07:38:02.304Z,-2.14
2019-01-18T07:40:31.409Z,-2.28
2019-01-18T07:43:00.513Z,-2.44
2019-01-18T07:45:29.772Z,-2.30
2019-01-18T07:47:58.865Z,-2.22
2019-01-18T07:50:27.989Z,-2.04
2019-01-18T07:52:57.172Z,-2.07
2019-01-18T07:55:26.306Z,-1.99
2019-01-18T07:57:55.383Z,-1.88
2019-01-18T08:00:26.307Z,-1.76
2019-01-18T08:02:55.401Z,-1.63
2019-01-18T08:05:26.881Z,-1.75
2019-01-18T08:07:55.967Z,-1.59
2019-01-18T08:10:25.084Z,-1.67
2019-01-18T08:12:54.163Z,-1.63
2019-01-18T08:15:24.836Z,-1.66
2019-01-18T08:17:53.929Z,-1.66
2019-01-18T08:20:24.563Z,-1.91
2019-01-18T08:22:54.230Z,-1.37
2019-01-18T08:25:23.341Z,-0.61
2019-01-18T08:27:52.723Z,0.27
2019-01-18T08:30:23.599Z,0.69
2019-01-18T08:32:52.675Z,0.37
2019-01-18T08:35:22.508Z,0.01
2019-01-18T08:37:51.754Z,-0.13
2019-01-18T08:40:26.006Z,-0.27
2019-01-18T08:42:55.114Z,-0.25
2019-01-18T08:45:26.973Z,-0.10
2019-01-18T08:47:56.049Z,-0.34
2019-01-18T08:50:25.164Z,-0.49
2019-01-18T08:52:54.248Z,-0.37
2019-01-18T08:55:23.442Z,1.39
2019-01-18T08:57:52.519Z,2.97
2019-01-18T09:00:22.935Z,3.19
2019-01-18T09:02:52.021Z,2.41
2019-01-18T09:05:22.906Z,3.95
2019-01-18T09:07:51.982Z,4.86
2019-01-18T09:10:21.962Z,4.48
2019-01-18T09:12:51.053Z,4.23
2019-01-18T09:15:20.160Z,2.87
2019-01-18T09:17:49.250Z,2.41
2019-01-18T09:20:20.461Z,2.31
2019-01-18T09:22:49.567Z,2.12
2019-01-18T09:25:18.659Z,1.78
2019-01-18T09:27:47.799Z,1.67
2019-01-18T09:30:21.919Z,1.33
2019-01-18T09:32:51.600Z,1.20
2019-01-18T09:35:21.466Z,1.67
2019-01-18T09:37:50.560Z,2.29
2019-01-18T09:40:21.620Z,2.92
2019-01-18T09:42:50.727Z,3.33
2019-01-18T09:45:19.851Z,3.27
2019-01-18T09:47:48.956Z,4.04
2019-01-18T09:50:19.996Z,9.94
2019-01-18T09:52:49.617Z,11.70
2019-01-18T09:55:18.778Z,9.47
2019-01-18T09:57:47.877Z,8.24
2019-01-18T10:00:25.059Z,6.48
2019-01-18T10:02:54.142Z,5.85
2019-01-18T10:05:23.442Z,9.14
2019-01-18T10:07:52.647Z,10.54
2019-01-18T10:10:21.724Z,9.77
2019-01-18T10:12:50.879Z,7.69
2019-01-18T10:15:22.069Z,7.58
2019-01-18T10:17:51.168Z,11.43
2019-01-18T10:20:20.248Z,15.94
2019-01-18T10:22:49.593Z,16.99
2019-01-18T10:25:18.711Z,19.51
2019-01-18T10:27:47.902Z,20.83
2019-01-18T10:30:21.513Z,19.92
2019-01-18T10:32:50.620Z,19.06
2019-01-18T10:35:20.399Z,19.79
2019-01-18T10:37:49.494Z,23.23
2019-01-18T10:40:18.614Z,22.26
2019-01-18T10:42:48.446Z,22.06
2019-01-18T10:45:17.787Z,23.36
2019-01-18T10:47:47.062Z,22.75
2019-01-18T10:50:18.130Z,22.25
2019-01-18T10:52:47.249Z,19.68
2019-01-18T10:55:16.465Z,22.77
2019-01-18T10:57:45.540Z,23.56
2019-01-18T11:00:17.294Z,21.52
2019-01-18T11:02:46.395Z,21.31
2019-01-18T11:05:15.683Z,20.04
2019-01-18T11:07:44.781Z,21.04
2019-01-18T11:10:13.893Z,20.21
2019-01-18T11:12:42.987Z,21.97
2019-01-18T11:15:13.728Z,22.52
2019-01-18T11:17:42.818Z,24.51
2019-01-18T11:20:20.279Z,23.49
2019-01-18T11:22:50.118Z,23.97
2019-01-18T11:25:19.195Z,19.55
2019-01-18T11:27:48.272Z,19.46
2019-01-18T11:30:17.369Z,22.63
2019-01-18T11:32:46.449Z,26.29
2019-01-18T11:35:16.864Z,25.50
2019-01-18T11:37:45.962Z,27.89
2019-01-18T11:40:17.542Z,25.07
2019-01-18T11:42:46.626Z,17.13
2019-01-18T11:45:16.122Z,14.13
2019-01-18T11:47:45.174Z,12.67
2019-01-18T11:50:16.451Z,10.18
2019-01-18T11:52:45.522Z,8.83
2019-01-18T11:55:14.624Z,7.36
2019-01-18T11:57:43.714Z,6.27
2019-01-18T12:00:21.061Z,5.73
2019-01-18T12:02:50.141Z,5.38
2019-01-18T12:05:19.359Z,5.06
2019-01-18T12:07:48.535Z,4.73
2019-01-18T12:10:19.870Z,4.54
2019-01-18T12:12:48.957Z,4.28
2019-01-18T12:15:18.110Z,4.46
2019-01-18T12:17:47.181Z,4.51
2019-01-18T12:20:28.258Z,4.57
2019-01-18T12:22:57.337Z,4.31
2019-01-18T12:25:26.438Z,4.70
2019-01-18T12:27:55.517Z,5.13
2019-01-18T12:30:32.834Z,5.78
2019-01-18T12:33:01.914Z,7.02
2019-01-18T12:35:31.017Z,9.49
2019-01-18T12:38:00.135Z,13.77
2019-01-18T12:40:29.233Z,15.38
2019-01-18T12:42:58.441Z,13.48
2019-01-18T12:45:27.857Z,13.40
2019-01-18T12:47:56.939Z,13.42
2019-01-18T12:50:31.509Z,12.98
2019-01-18T12:53:01.785Z,11.77
2019-01-18T12:55:30.891Z,12.59
2019-01-18T12:57:59.980Z,12.10
2019-01-18T13:00:29.094Z,11.69
2019-01-18T13:02:58.301Z,10.05
2019-01-18T13:05:30.256Z,11.77
2019-01-18T13:07:59.394Z,11.82
2019-01-18T13:10:28.507Z,12.11
2019-01-18T13:12:57.598Z,12.97
2019-01-18T13:15:38.814Z,12.59
2019-01-18T13:18:07.889Z,13.03
2019-01-18T13:20:36.996Z,12.49
2019-01-18T13:23:06.086Z,11.48
2019-01-18T13:25:35.326Z,11.74
2019-01-18T13:28:04.589Z,11.17
2019-01-18T13:30:33.690Z,10.35
2019-01-18T13:33:02.782Z,10.08
2019-01-18T13:35:31.879Z,9.85
2019-01-18T13:38:00.956Z,8.02
2019-01-18T13:40:30.074Z,6.84
2019-01-18T13:42:59.159Z,6.28
2019-01-18T13:45:28.254Z,5.79
2019-01-18T13:47:57.375Z,5.19
2019-01-18T13:50:26.455Z,4.42
2019-01-18T13:52:55.553Z,4.38
2019-01-18T13:55:25.823Z,3.68
2019-01-18T13:57:54.913Z,3.45
2019-01-18T14:00:23.995Z,3.17
2019-01-18T14:02:53.202Z,3.13
2019-01-18T14:05:22.271Z,2.89
2019-01-18T14:07:53.454Z,3.09
2019-01-18T14:10:24.515Z,2.84
2019-01-18T14:12:53.633Z,2.68
2019-01-18T14:15:23.502Z,2.54
2019-01-18T14:17:52.601Z,2.50
2019-01-18T14:20:22.120Z,2.50
2019-01-18T14:22:51.878Z,2.23
2019-01-18T14:25:21.071Z,2.35
2019-01-18T14:27:50.158Z,2.60
2019-01-18T14:30:24.092Z,2.23
2019-01-18T14:32:55.715Z,2.25
2019-01-18T14:35:24.258Z,2.23
2019-01-18T14:37:53.465Z,2.25
2019-01-18T14:40:22.650Z,2.46
2019-01-18T14:42:51.873Z,2.36
2019-01-18T14:45:26.467Z,2.39
2019-01-18T14:47:55.570Z,2.42
2019-01-18T14:50:24.659Z,2.33
2019-01-18T14:52:53.754Z,2.42
2019-01-18T14:55:22.867Z,2.68
2019-01-18T14:57:51.973Z,2.98
2019-01-18T15:00:26.186Z,3.70
2019-01-18T15:03:02.024Z,4.07
2019-01-18T15:05:26.148Z,4.05
2019-01-18T15:07:55.246Z,3.59
2019-01-18T15:10:24.362Z,3.30
2019-01-18T15:12:55.754Z,3.26
2019-01-18T15:15:24.853Z,3.29
2019-01-18T15:17:53.996Z,3.13
2019-01-18T15:20:25.877Z,3.16
2019-01-18T15:22:55.081Z,2.86
2019-01-18T15:25:24.307Z,2.77
2019-01-18T15:27:53.383Z,2.97
2019-01-18T15:30:24.551Z,3.29
2019-01-18T15:32:53.637Z,2.78
2019-01-18T15:35:24.930Z,2.56
2019-01-18T15:37:54.002Z,2.30
2019-01-18T15:40:24.963Z,1.69
2019-01-18T15:42:54.631Z,1.58
2019-01-18T15:45:23.755Z,1.34
2019-01-18T15:47:52.825Z,0.89
2019-01-18T15:50:27.484Z,0.66
2019-01-18T15:52:56.592Z,0.38
2019-01-18T15:55:25.819Z,0.16
2019-01-18T15:57:54.893Z,0.04
2019-01-18T16:00:26.568Z,-0.03
2019-01-18T16:02:56.171Z,-0.12
2019-01-18T16:05:25.381Z,-0.29
2019-01-18T16:07:54.480Z,-0.43
2019-01-18T16:10:25.090Z,-0.54
2019-01-18T16:12:54.400Z,-0.75
2019-01-18T16:15:25.852Z,-0.78
2019-01-18T16:17:54.930Z,-0.98
2019-01-18T16:20:24.134Z,-1.04
2019-01-18T16:22:53.548Z,-0.94
2019-01-18T16:25:25.341Z,-1.00
2019-01-18T16:27:54.585Z,-1.08
2019-01-18T16:30:23.990Z,-1.25
2019-01-18T16:32:53.466Z,-1.27
2019-01-18T16:35:22.577Z,-1.34
2019-01-18T16:37:51.997Z,-1.44
2019-01-18T16:40:29.619Z,-1.47
2019-01-18T16:43:05.407Z,-1.55
2019-01-18T16:45:34.600Z,-1.65
2019-01-18T16:48:03.683Z,-1.64
2019-01-18T16:50:32.840Z,-1.74
2019-01-18T16:53:01.941Z,-1.90
2019-01-18T16:55:31.049Z,-1.94
2019-01-18T16:58:00.134Z,-1.98
2019-01-18T17:00:32.178Z,-2.04
2019-01-18T17:03:01.260Z,-1.98
2019-01-18T17:05:30.372Z,-1.99
2019-01-18T17:07:59.472Z,-2.07
2019-01-18T17:10:28.877Z,-2.12
2019-01-18T17:12:58.501Z,-2.12
2019-01-18T17:15:27.601Z,-2.09
2019-01-18T17:17:56.700Z,-2.09
2019-01-18T17:20:28.031Z,-2.21
2019-01-18T17:22:57.168Z,-2.17
2019-01-18T17:25:26.249Z,-2.18
2019-01-18T17:27:55.443Z,-2.12
2019-01-18T17:30:24.539Z,-2.20
2019-01-18T17:32:53.635Z,-2.24
2019-01-18T17:35:29.159Z,-2.23
2019-01-18T17:38:15.470Z,-2.29
2019-01-18T17:41:02.427Z,-2.31
2019-01-18T17:44:19.037Z,-2.29
2019-01-18T17:46:58.008Z,-2.28
2019-01-18T17:49:57.441Z,-2.31
2019-01-18T17:53:06.225Z,-2.26
2019-01-18T17:56:01.741Z,-2.27
2019-01-18T17:59:14.784Z,-2.35
2019-01-18T18:02:01.134Z,-2.30
2019-01-18T18:04:49.335Z,-2.37
2019-01-18T18:07:55.669Z,-2.27
2019-01-18T18:11:07.596Z,-2.32
2019-01-18T18:14:13.470Z,-2.44
2019-01-18T18:17:01.696Z,-2.47
2019-01-18T18:20:22.563Z,-2.38
2019-01-18T18:23:17.960Z,-2.41
2019-01-18T18:26:20.372Z,-2.47
2019-01-18T18:29:20.068Z,-2.38
2019-01-18T18:32:16.360Z,-2.28
2019-01-18T18:35:09.495Z,-2.25
2019-01-18T18:38:18.698Z,-2.11
2019-01-18T18:41:24.431Z,-2.03
2019-01-18T18:44:28.611Z,-2.21
2019-01-18T18:47:43.663Z,-2.24
2019-01-18T18:51:08.965Z,-2.30
2019-01-18T18:53:59.987Z,-2.36
2019-01-18T18:56:55.601Z,-2.39
2019-01-18T18:59:53.950Z,-2.51
2019-01-18T19:02:39.027Z,-2.56
2019-01-18T19:06:00.496Z,-2.68
2019-01-18T19:08:58.028Z,-2.66
2019-01-18T19:12:11.872Z,-2.69
2019-01-18T19:15:21.040Z,-2.74
2019-01-18T19:18:25.607Z,-2.77
2019-01-18T19:21:44.590Z,-2.85
2019-01-18T19:24:41.078Z,-3.06
2019-01-18T19:27:28.017Z,-3.03
2019-01-18T19:30:39.986Z,-3.02
2019-01-18T19:33:30.529Z,-3.12
2019-01-18T19:36:39.829Z,-3.10
2019-01-18T19:39:45.787Z,-3.12
2019-01-18T19:43:04.783Z,-3.15
2019-01-18T19:46:32.812Z,-3.19
2019-01-18T19:50:06.686Z,-3.23
2019-01-18T19:53:10.716Z,-3.35
2019-01-18T19:56:20.367Z,-3.40
2019-01-18T19:59:32.311Z,-3.42
2019-01-18T20:02:37.816Z,-3.44
2019-01-18T20:05:48.134Z,-3.41
2019-01-18T20:08:54.163Z,-3.32
2019-01-18T20:12:05.457Z,-3.31
2019-01-18T20:15:13.835Z,-3.20
2019-01-18T20:18:19.509Z,-3.23
2019-01-18T20:21:23.136Z,-3.19
2019-01-18T20:24:34.672Z,-3.19
2019-01-18T20:28:14.679Z,-3.03
2019-01-18T20:31:13.072Z,-3.00
2019-01-18T20:34:18.338Z,-3.13
2019-01-18T20:37:23.764Z,-3.13
2019-01-18T20:40:20.502Z,-3.08
2019-01-18T20:43:17.024Z,-3.11
2019-01-18T20:46:27.237Z,-3.21
2019-01-18T20:49:43.841Z,-3.19
2019-01-18T20:52:36.824Z,-3.31
2019-01-18T20:58:28.062Z,-3.35
2019-01-18T21:01:29.073Z,-3.36
2019-01-18T21:04:51.092Z,-3.43
2019-01-18T21:07:57.959Z,-3.34
2019-01-18T21:10:41.662Z,-3.25
2019-01-18T21:14:05.898Z,-3.24
2019-01-18T21:16:56.543Z,-3.19
2019-01-18T21:19:53.299Z,-3.37
2019-01-18T21:23:01.872Z,-3.36
2019-01-18T21:26:26.163Z,-3.42
2019-01-18T21:29:47.403Z,-3.32
2019-01-18T21:32:34.654Z,-3.31
2019-01-18T21:35:42.235Z,-2.99
2019-01-18T21:38:48.438Z,-2.90
2019-01-18T21:41:42.943Z,-2.75
2019-01-18T21:44:55.067Z,-2.64
2019-01-18T21:47:39.776Z,-2.56
2019-01-18T21:51:11.116Z,-2.44
2019-01-18T21:53:55.899Z,-2.44
2019-01-18T21:56:52.556Z,-2.48
2019-01-18T22:00:08.403Z,-2.49
2019-01-18T22:03:16.005Z,-2.50
2019-01-18T22:06:21.924Z,-2.58
2019-01-18T22:09:14.001Z,-2.33
2019-01-18T22:12:05.543Z,-2.53
2019-01-18T22:15:17.539Z,-2.61
2019-01-18T22:18:18.549Z,-2.56
2019-01-18T22:21:21.795Z,-2.69
2019-01-18T22:24:03.432Z,-2.76
2019-01-18T22:27:13.483Z,-2.83
2019-01-18T22:30:00.490Z,-2.76
2019-01-18T22:32:59.738Z,-2.87
2019-01-18T22:36:12.532Z,-2.88
2019-01-18T22:39:05.171Z,-2.73
2019-01-18T22:42:08.638Z,-2.86
2019-01-18T22:45:09.390Z,-2.98
2019-01-18T22:48:18.466Z,-3.06
2019-01-18T22:51:13.320Z,-3.19
2019-01-18T22:53:56.264Z,-3.36
2019-01-18T22:57:05.568Z,-3.23
2019-01-18T23:00:30.151Z,-3.37
2019-01-18T23:03:14.808Z,-3.53
2019-01-18T23:05:55.948Z,-3.58
2019-01-18T23:09:13.710Z,-3.65
2019-01-18T23:12:19.659Z,-3.64
2019-01-18T23:15:33.891Z,-3.66
2019-01-18T23:18:37.942Z,-3.78
2019-01-18T23:21:48.911Z,-3.94
2019-01-18T23:24:50.727Z,-4.02
2019-01-18T23:27:51.801Z,-4.15
2019-01-18T23:30:39.019Z,-4.32
2019-01-18T23:33:42.124Z,-4.46
2019-01-18T23:36:41.442Z,-4.45
2019-01-18T23:39:48.694Z,-4.64
2019-01-18T23:42:58.958Z,-4.65
2019-01-18T23:46:09.503Z,-4.61
2019-01-18T23:49:25.982Z,-4.66
2019-01-18T23:52:17.428Z,-4.82
2019-01-18T23:55:28.426Z,-4.82
2019-01-18T23:58:18.846Z,-4.92
